Kezdőlap
METAR-TAF:

METAR-TAF

Repülőterek :

Chesterfield Inlet, Nunavut, Kanada

földrajzi szélesség: 63-20N, földrajzi hosszúság: 090-43W, magasság: 11 m

Jelenlegi meteorológiai megfigyelések

A jelentés 1 órával és 19 perccel ezelõtt készült, 12:00 UTC
Északnyugati szél 13 kt
Hőmérséklet 0°C
Páratartalom 74%
Légköri nyomás 1021 hPa
Látótávolság: 24.1 km
Derült ég

METAR: CYCS 271200Z 31013KT 15SM SKC M00/M04 A3015 RMK SLP213

Idő: 08:19 (13:19 UTC)


TAF: hiányzik

Meteorológiai megfigyelések és előrejelzések több, mint 4000 repülőtéren (METAR és TAF jelentéseket).

A térképen piros és sárga pontok jelzik az elérhető meteorológiai állomásokat.

Mozgassa az egeret a pont fölött, hogy megjelenjen az állomás neve.

Azután kattintson az időjárási megfigyelések és előrejelzések megtekintéséhez.

A térkép megváltoztatása: kattintson a fekete keresztel jelölt zöld gombra ráközelítéshez, a vonallal jelölt zöld gombra távolításhoz, vagy a zöld nyilakra a szomszédos térképek eléréséhez.


METAR-TAF: